Terminal Aerodrome Forecast
Issued by NWS Springfield, MO

Home | Current Version | Previous Version | Text Only | Print | Product List | Glossary On
Versions: 1 2 3 4 5 6 7 8 9 10 11 12 13 14 15 16 17 18 19
807
FTUS43 KSGF 260520
TAFSGF
TAF
KSGF 260520Z 2606/2706 18008KT P6SM OVC090
     FM261200 16008KT P6SM OVC025
     FM261300 17009KT P6SM VCTS OVC010CB
     FM261700 18011KT P6SM VCTS SCT020 BKN040CB
     FM261900 18011KT P6SM SCT040 BKN200
     FM270300 16012KT P6SM VCTS BKN035CB=

USA.gov is the U.S. government's official web portal to all federal, state and local government web resources and services.